Webcam

2022/01/18 03:20 EBBR 180320Z 29003KT 4000 BR SCT003 BKN004 05/04 Q1038 TEMPO 2500 BR

Webcam

--- Refresh now ---